Artesia ASC Data

Date Time Air Temperature Relative Humidity Dewpoint Windchill Heat Index Wind Speed Wind Dir. Rain Solar Radiation Soil Temperature
2m 2m 3m 3m 10cm
US/Mountain F % F F F MPH deg in MJ/m^2 F
max avg avg
2021-02-23 00:05:00 43.0 36.3 18.0 43.0 43.0 1.3 5.3 3.2 89.1 354.8 0.00 0.0000000 46.1
2021-02-23 00:10:00 42.5 38.1 18.7 42.5 42.5 1.7 4.4 2.6 71.2 79.6 0.00 0.0000000 46.0
2021-02-23 00:15:00 40.9 40.9 18.9 40.9 40.9 2.2 3.1 1.8 66.7 77.4 0.00 0.0000000 46.0
2021-02-23 00:20:00 39.8 43.1 19.1 39.8 39.8 0.0 3.5 2.1 87.9 44.0 0.00 0.0000000 45.9
2021-02-23 00:25:00 38.7 44.9 19.1 38.7 38.7 1.7 2.4 1.2 173.4 318.9 0.00 0.0000000 45.9
2021-02-23 00:30:00 38.0 46.5 19.3 38.0 38.0 0.0 2.2 1.1 339.2 73.9 0.00 0.0000000 45.8
2021-02-23 00:35:00 38.7 44.1 18.6 38.7 38.7 0.0 3.5 1.6 266.5 356.6 0.00 0.0000000 45.8
2021-02-23 00:40:00 38.1 47.7 20.0 38.1 38.1 2.2 3.0 1.0 85.0 131.0 0.00 0.0000000 45.8
2021-02-23 00:45:00 38.2 46.0 19.2 38.2 38.2 1.9 2.1 1.1 313.3 21.1 0.00 0.0000000 45.7
2021-02-23 00:50:00 38.2 46.3 19.3 38.2 38.2 2.6 2.6 1.8 192.5 233.0 0.00 0.0000000 45.7
2021-02-23 00:55:00 37.1 47.8 19.1 33.5 37.1 4.4 4.9 4.2 219.8 194.8 0.00 0.0000000 45.6
2021-02-23 01:00:00 37.7 47.0 19.3 34.0 37.7 4.7 5.5 4.6 229.6 226.8 0.00 0.0000000 45.6
2021-02-23 01:05:00 35.5 53.3 20.1 35.5 35.5 2.8 4.9 3.1 148.8 161.6 0.00 0.0000000 45.5
2021-02-23 01:10:00 36.3 52.1 20.4 32.5 36.3 4.6 4.9 3.9 193.9 172.6 0.00 0.0000000 45.5
2021-02-23 01:15:00 36.9 48.6 19.3 36.9 36.9 2.8 4.7 3.6 224.9 210.8 0.00 0.0000000 45.4
2021-02-23 01:20:00 36.8 48.3 19.0 34.1 36.8 3.5 3.5 3.2 250.5 239.0 0.00 0.0000000 45.4
2021-02-23 01:25:00 35.5 51.7 19.4 32.8 35.5 3.3 3.3 2.7 313.3 294.0 0.00 0.0000000 45.3
2021-02-23 01:30:00 35.6 51.8 19.6 32.2 35.6 4.0 4.0 3.5 277.0 289.5 0.00 0.0000000 45.3
2021-02-23 01:35:00 34.3 54.9 19.7 31.7 34.3 3.1 4.7 4.1 258.0 260.3 0.00 0.0000000 45.3
2021-02-23 01:40:00 33.2 57.6 19.8 30.2 33.2 3.3 4.2 3.5 276.4 289.6 0.00 0.0000000 45.2
2021-02-23 01:45:00 34.0 57.0 20.4 29.0 34.0 5.5 5.5 4.9 289.3 281.8 0.00 0.0000000 45.2
2021-02-23 01:50:00 34.8 54.4 20.0 31.5 34.8 3.8 5.5 4.5 255.2 272.7 0.00 0.0000000 45.1
2021-02-23 01:55:00 33.6 59.2 20.9 29.1 33.6 4.7 5.6 4.7 268.9 254.9 0.00 0.0000000 45.1
2021-02-23 02:00:00 35.5 51.0 19.1 32.4 35.5 3.7 4.9 4.1 303.6 317.0 0.00 0.0000000 45.0
2021-02-23 02:05:00 36.4 47.3 18.2 33.3 36.4 3.8 4.6 3.9 327.6 324.3 0.00 0.0000000 45.0
2021-02-23 02:10:00 35.2 49.2 18.0 31.6 35.2 4.2 4.9 4.0 288.6 321.5 0.00 0.0000000 44.9
2021-02-23 02:15:00 33.9 52.6 18.4 29.8 33.9 4.4 4.6 3.2 310.3 306.3 0.00 0.0000000 44.9
2021-02-23 02:20:00 33.9 51.9 18.1 33.9 33.9 1.7 4.4 2.4 318.3 298.8 0.00 0.0000000 44.8
2021-02-23 02:25:00 35.1 48.5 17.6 32.1 35.1 3.5 3.8 2.9 335.4 332.6 0.00 0.0000000 44.8
2021-02-23 02:30:00 34.9 48.7 17.5 34.9 34.9 3.0 3.7 2.8 300.6 318.1 0.00 0.0000000 44.7
2021-02-23 02:35:00 34.9 48.5 17.4 34.9 34.9 1.9 3.3 2.5 288.0 311.8 0.00 0.0000000 44.7
2021-02-23 02:40:00 34.5 51.9 18.6 32.0 34.5 3.1 3.3 2.5 303.0 301.7 0.00 0.0000000 44.6
2021-02-23 02:45:00 33.8 51.8 17.9 33.8 33.8 0.0 3.1 1.7 267.4 292.7 0.00 0.0000000 44.6
2021-02-23 02:50:00 34.4 49.7 17.5 31.7 34.4 3.3 3.3 1.4 333.1 305.0 0.00 0.0000000 44.5
2021-02-23 02:55:00 35.1 48.4 17.6 35.1 35.1 2.8 4.2 3.1 330.9 317.3 0.00 0.0000000 44.5
2021-02-23 03:00:00 34.8 49.3 17.7 34.8 34.8 1.9 3.8 2.6 318.4 337.4 0.00 0.0000000 44.5
2021-02-23 03:05:00 33.3 53.4 18.2 33.3 33.3 2.4 2.8 1.4 132.8 131.6 0.00 0.0000000 44.4
2021-02-23 03:10:00 31.6 57.5 18.3 31.6 31.6 1.7 3.0 1.4 320.3 151.1 0.00 0.0000000 44.3
2021-02-23 03:15:00 32.4 54.8 17.9 29.3 32.4 3.3 4.7 2.8 310.3 273.2 0.00 0.0000000 44.3
2021-02-23 03:20:00 32.6 53.7 17.6 29.7 32.6 3.1 5.5 3.8 263.1 292.8 0.00 0.0000000 44.3
2021-02-23 03:25:00 32.1 54.9 17.7 28.4 32.1 3.8 4.0 2.9 263.9 278.2 0.00 0.0000000 44.2
2021-02-23 03:30:00 30.6 61.1 18.8 26.5 30.6 4.0 4.4 3.2 278.7 276.0 0.00 0.0000000 44.2
2021-02-23 03:35:00 30.8 61.4 19.1 26.7 30.8 4.0 4.7 3.8 289.8 281.8 0.00 0.0000000 44.1
2021-02-23 03:40:00 30.6 61.9 19.1 25.9 30.6 4.6 5.3 4.1 266.4 282.1 0.00 0.0000000 44.1
2021-02-23 03:45:00 30.8 61.7 19.2 27.2 30.8 3.5 4.9 3.7 322.1 297.1 0.00 0.0000000 44.0
2021-02-23 03:50:00 32.5 54.4 17.9 27.2 32.5 5.5 6.0 4.9 328.3 330.7 0.00 0.0000000 44.0
2021-02-23 03:55:00 31.3 58.1 18.2 27.8 31.3 3.5 5.1 4.2 319.2 313.0 0.00 0.0000000 43.9
2021-02-23 04:00:00 31.7 55.1 17.4 31.7 31.7 2.4 4.0 3.3 314.8 321.7 0.00 0.0000000 43.9
2021-02-23 04:05:00 31.5 56.4 17.7 28.6 31.5 3.1 3.3 2.6 323.5 306.1 0.00 0.0000000 43.9
2021-02-23 04:10:00 32.3 54.6 17.8 27.6 32.3 4.7 6.0 4.7 334.3 334.5 0.00 0.0000000 43.8
2021-02-23 04:15:00 32.1 54.3 17.4 27.9 32.1 4.2 5.5 4.9 329.6 334.5 0.00 0.0000000 43.8
2021-02-23 04:20:00 30.6 58.6 17.8 26.7 30.6 3.8 4.6 3.5 336.8 331.7 0.00 0.0000000 43.7
2021-02-23 04:25:00 30.4 58.2 17.5 30.4 30.4 2.1 4.0 2.5 324.9 324.2 0.00 0.0000000 43.7
2021-02-23 04:30:00 30.5 57.3 17.2 30.5 30.5 2.2 2.4 2.1 310.5 303.8 0.00 0.0000000 43.7
2021-02-23 04:35:00 30.4 60.5 18.4 30.4 30.4 2.4 3.1 2.7 305.8 302.2 0.00 0.0000000 43.6
2021-02-23 04:40:00 29.5 60.0 17.3 25.6 29.5 3.7 5.3 3.5 309.9 292.3 0.00 0.0000000 43.6
2021-02-23 04:45:00 28.2 64.4 17.7 24.3 28.2 3.5 3.8 3.5 300.7 299.6 0.00 0.0000000 43.5
2021-02-23 04:50:00 28.6 64.6 18.2 24.1 28.6 4.0 4.0 3.3 310.7 308.9 0.00 0.0000000 43.5
2021-02-23 04:55:00 30.0 60.2 17.8 25.5 30.0 4.2 4.2 3.7 338.4 325.7 0.00 0.0000000 43.4
2021-02-23 05:00:00 30.8 57.3 17.5 26.0 30.8 4.6 4.9 4.3 340.1 327.2 0.00 0.0000000 43.4
2021-02-23 05:05:00 29.5 60.6 17.5 24.5 29.5 4.6 5.8 5.1 322.9 324.2 0.00 0.0000000 43.4
2021-02-23 05:10:00 30.0 60.0 17.8 26.6 30.0 3.3 5.1 4.3 316.1 321.9 0.00 0.0000000 43.3
2021-02-23 05:15:00 30.8 57.7 17.6 27.7 30.8 3.1 4.0 3.4 268.9 298.3 0.00 0.0000000 43.3
2021-02-23 05:20:00 28.9 61.3 17.3 24.7 28.9 3.8 3.8 3.0 292.7 272.3 0.00 0.0000000 43.2
2021-02-23 05:25:00 28.5 65.0 18.2 24.9 28.5 3.3 5.5 4.2 307.8 297.2 0.00 0.0000000 43.2
2021-02-23 05:30:00 29.4 61.3 17.8 29.4 29.4 2.8 3.8 3.5 307.6 301.6 0.00 0.0000000 43.1
2021-02-23 05:35:00 29.7 61.3 18.0 26.2 29.7 3.3 3.7 1.8 332.8 306.8 0.00 0.0000000 43.1
2021-02-23 05:40:00 30.0 59.3 17.5 26.7 30.0 3.3 4.6 3.2 286.2 307.9 0.00 0.0000000 43.1
2021-02-23 05:45:00 29.6 61.0 17.7 29.6 29.6 2.4 3.5 1.1 289.7 294.4 0.00 0.0000000 43.0
2021-02-23 05:50:00 29.6 60.6 17.6 26.1 29.6 3.3 3.3 2.4 305.7 292.7 0.00 0.0000000 43.0
2021-02-23 05:55:00 29.4 60.7 17.5 25.7 29.4 3.5 4.6 3.7 301.9 302.8 0.00 0.0000000 42.9
2021-02-23 06:00:00 30.6 58.2 17.7 26.0 30.6 4.4 4.6 3.8 305.7 300.9 0.00 0.0000000 42.9
2021-02-23 06:05:00 32.4 53.7 17.4 28.1 32.4 4.4 4.6 4.1 331.4 323.1 0.00 0.0000000 42.8
2021-02-23 06:10:00 33.0 50.4 16.6 29.6 33.0 3.7 4.4 3.8 319.2 328.5 0.00 0.0000000 42.8
2021-02-23 06:15:00 32.0 52.9 16.8 29.1 32.0 3.1 3.8 3.0 323.2 314.2 0.00 0.0000000 42.8
2021-02-23 06:20:00 31.6 53.0 16.4 28.5 31.6 3.3 3.5 3.0 305.7 320.0 0.00 0.0010000 42.7
2021-02-23 06:25:00 29.5 58.5 16.7 29.5 29.5 2.1 3.5 2.5 231.5 254.2 0.00 0.0020000 42.7
2021-02-23 06:30:00 28.1 63.4 17.2 28.1 28.1 3.0 4.0 2.3 207.9 211.2 0.00 0.0040000 42.7
2021-02-23 06:35:00 28.4 63.9 17.8 28.4 28.4 2.1 3.3 2.8 246.1 222.3 0.00 0.0060000 42.6
2021-02-23 06:40:00 28.6 62.6 17.5 28.6 28.6 3.0 3.3 3.0 247.1 246.6 0.00 0.0090000 42.6
2021-02-23 06:45:00 28.5 64.2 17.9 28.5 28.5 1.3 3.3 2.4 298.6 256.2 0.00 0.0170000 42.5
2021-02-23 06:50:00 29.6 61.4 17.9 29.6 29.6 0.8 6.7 1.9 53.4 338.6 0.00 0.0270000 42.5
2021-02-23 06:55:00 30.2 59.1 17.7 27.1 30.2 3.1 4.4 2.9 22.3 26.1 0.00 0.0400000 42.5
2021-02-23 07:00:00 30.8 59.5 18.4 30.8 30.8 1.2 4.4 3.2 49.7 28.8 0.00 0.0560000 42.4
2021-02-23 07:05:00 31.5 57.7 18.2 31.5 31.5 1.0 2.4 1.6 351.9 3.0 0.00 0.0750000 42.4
2021-02-23 07:10:00 32.0 58.1 19.0 32.0 32.0 0.8 1.2 0.4 69.7 8.7 0.00 0.0880000 42.4
2021-02-23 07:15:00 31.9 58.5 19.0 31.9 31.9 0.0 2.4 1.3 96.3 101.8 0.00 0.1130000 42.3
2021-02-23 07:20:00 32.8 60.3 20.6 32.8 32.8 1.3 2.1 0.4 152.1 152.5 0.00 0.1370000 42.3
2021-02-23 07:25:00 32.6 61.4 20.8 32.6 32.6 0.0 1.9 1.1 242.4 218.1 0.00 0.1160000 42.3
2021-02-23 07:30:00 32.4 60.0 20.0 32.4 32.4 1.5 1.7 0.9 269.2 241.9 0.00 0.0930000 42.2
2021-02-23 07:35:00 32.8 62.9 21.5 32.8 32.8 2.6 2.6 1.8 304.8 293.8 0.00 0.1770000 42.2
2021-02-23 07:40:00 34.1 61.0 22.0 31.3 34.1 3.3 3.3 2.7 3.6 323.1 0.00 0.2270000 42.2
2021-02-23 07:45:00 35.9 54.4 21.1 35.9 35.9 2.8 4.2 3.2 16.6 8.2 0.00 0.2380000 42.1
2021-02-23 07:50:00 36.8 50.3 20.0 33.5 36.8 4.2 4.2 3.1 13.9 7.3 0.00 0.2510000 42.1
2021-02-23 07:55:00 37.6 47.0 19.2 37.6 37.6 1.0 3.8 2.1 6.4 11.0 0.00 0.2120000 42.1
2021-02-23 08:00:00 39.5 43.8 19.2 39.5 39.5 0.0 1.3 0.6 77.5 31.3 0.00 0.2560000 42.1
2021-02-23 08:05:00 40.3 42.0 19.0 40.3 40.3 1.5 2.4 1.1 351.5 343.8 0.00 0.2500000 42.0
2021-02-23 08:10:00 40.8 43.8 20.5 40.8 40.8 1.2 1.2 0.2 247.5 274.2 0.00 0.1250000 42.0
2021-02-23 08:15:00 40.8 44.4 20.7 40.8 40.8 1.7 1.7 0.4 214.3 227.5 0.00 0.1600000 42.0
2021-02-23 08:20:00 41.4 44.9 21.6 41.4 41.4 1.2 2.1 0.7 118.6 190.1 0.00 0.3540000 42.0
2021-02-23 08:25:00 43.0 40.6 20.6 43.0 43.0 2.6 2.8 2.0 152.4 136.4 0.00 0.3460000 42.0
2021-02-23 08:30:00 43.3 42.3 21.9 43.3 43.3 2.4 3.1 2.6 110.8 137.3 0.00 0.2910000 42.0
2021-02-23 08:35:00 44.6 42.7 23.3 44.6 44.6 1.7 3.1 2.4 78.8 125.2 0.00 0.3830000 41.9
2021-02-23 08:40:00 45.0 39.0 21.5 45.0 45.0 1.7 1.9 1.0 149.8 120.5 0.00 0.4060000 41.9
2021-02-23 08:45:00 47.1 37.8 22.6 47.1 47.1 1.5 3.0 2.2 116.2 156.1 0.00 0.4150000 41.9
2021-02-23 08:50:00 47.0 34.8 20.6 47.0 47.0 2.8 2.8 2.3 149.4 153.7 0.00 0.4270000 41.9
2021-02-23 08:55:00 48.9 34.1 21.8 48.9 48.9 2.4 4.0 2.9 164.4 141.3 0.00 0.4380000 41.9
2021-02-23 09:00:00 49.6 35.7 23.5 49.6 49.6 2.8 3.7 2.6 130.5 103.1 0.00 0.4540000 41.9
2021-02-23 09:05:00 49.1 36.4 23.5 49.1 49.1 2.4 3.8 2.9 101.3 99.6 0.00 0.4720000 41.9
2021-02-23 09:10:00 51.4 35.4 24.9 51.4 51.4 1.2 3.0 1.9 100.5 112.2 0.00 0.4920000 41.9
2021-02-23 09:15:00 52.5 34.7 25.4 52.5 52.5 3.3 4.6 3.1 149.9 130.1 0.00 0.5180000 42.0
2021-02-23 09:20:00 52.0 33.1 23.9 52.0 52.0 1.2 3.7 2.5 129.9 137.4 0.00 0.5020000 42.0
2021-02-23 09:25:00 52.8 33.8 25.1 52.8 52.8 2.6 3.0 2.2 107.4 108.1 0.00 0.3010000 42.0
2021-02-23 09:30:00 52.6 31.7 23.3 52.6 52.6 1.0 2.4 1.2 91.2 65.4 0.00 0.3220000 42.0
2021-02-23 09:35:00 53.6 30.7 23.5 53.6 53.6 0.0 1.3 0.2 105.7 86.7 0.00 0.1970000 42.0
2021-02-23 09:40:00 55.0 27.8 22.2 55.0 55.0 1.3 2.1 0.9 172.3 159.0 0.00 0.4600000 42.1
2021-02-23 09:45:00 55.3 26.4 21.3 55.3 55.3 1.7 1.7 1.0 192.8 219.3 0.00 0.4460000 42.1
2021-02-23 09:50:00 55.8 24.6 20.0 55.8 55.8 4.4 5.5 3.6 168.3 190.0 0.00 0.5730000 42.1
2021-02-23 09:55:00 57.7 25.9 22.9 57.7 57.7 4.6 6.9 5.4 177.0 177.2 0.00 0.6100000 42.2
2021-02-23 10:00:00 58.3 22.7 20.3 58.3 58.3 5.8 9.6 6.8 187.1 167.8 0.00 0.6160000 42.2
2021-02-23 10:05:00 57.6 23.7 20.7 57.6 57.6 9.0 9.9 7.8 161.8 165.6 0.00 0.6040000 42.2
2021-02-23 10:10:00 58.7 23.9 21.9 58.7 58.7 7.6 9.7 8.5 149.3 162.8 0.00 0.6330000 42.3
2021-02-23 10:15:00 59.3 22.5 20.9 59.3 59.3 11.0 11.7 8.4 167.3 160.0 0.00 0.6410000 42.3
2021-02-23 10:20:00 59.1 24.1 22.4 59.1 59.1 10.3 11.2 9.5 140.5 154.5 0.00 0.6490000 42.4
2021-02-23 10:25:00 61.1 23.9 23.9 61.1 61.1 9.7 12.6 9.8 141.2 162.9 0.00 0.6580000 42.5
2021-02-23 10:30:00 58.7 21.0 18.8 58.7 58.7 9.7 12.1 10.1 151.9 156.8 0.00 0.6680000 42.5
2021-02-23 10:35:00 61.4 20.4 20.3 61.4 61.4 10.1 14.4 10.0 195.1 159.8 0.00 0.6760000 42.6
2021-02-23 10:40:00 62.0 19.7 20.0 62.0 62.0 9.9 13.7 10.5 142.0 166.0 0.00 0.6860000 42.7
2021-02-23 10:45:00 62.4 17.1 17.1 62.4 62.4 11.0 13.0 11.2 154.3 157.0 0.00 0.6920000 42.8
2021-02-23 10:50:00 63.9 16.2 17.1 63.9 63.9 11.5 13.5 11.7 170.2 157.3 0.00 0.7020000 42.9
2021-02-23 10:55:00 66.0 18.0 21.3 66.0 66.0 11.3 14.7 11.3 139.1 162.9 0.00 0.7070000 43.0
2021-02-23 11:00:00 66.5 16.6 19.7 66.5 66.5 12.1 14.0 12.1 143.8 146.3 0.00 0.7150000 43.1
2021-02-23 11:05:00 66.2 15.7 18.3 66.2 66.2 12.4 15.3 12.7 175.6 154.4 0.00 0.7220000 43.2
2021-02-23 11:10:00 67.3 14.5 17.2 67.3 67.3 14.4 15.8 13.6 162.1 160.2 0.00 0.7270000 43.3
2021-02-23 11:15:00 69.1 14.4 18.6 69.1 69.1 14.2 19.0 13.9 171.1 167.4 0.00 0.7330000 43.4
2021-02-23 11:20:00 68.1 14.1 17.2 68.1 68.1 12.8 20.6 14.5 190.6 172.5 0.00 0.7370000 43.5
2021-02-23 11:25:00 69.3 15.5 20.4 69.3 69.3 15.8 18.5 14.4 183.5 175.9 0.00 0.7440000 43.6
2021-02-23 11:30:00 68.6 14.4 18.2 68.6 68.6 14.0 17.4 14.2 159.5 177.4 0.00 0.7470000 43.7
2021-02-23 11:35:00 68.3 16.3 20.8 68.3 68.3 13.1 16.7 14.4 175.7 165.6 0.00 0.7490000 43.9
2021-02-23 11:40:00 69.7 15.4 20.5 69.7 69.7 10.5 17.6 14.7 158.9 167.2 0.00 0.7530000 44.0
2021-02-23 11:45:00 69.8 14.4 19.1 69.8 69.8 13.1 16.7 13.5 151.5 156.3 0.00 0.7540000 44.2
2021-02-23 11:50:00 70.8 13.5 18.3 70.8 70.8 13.1 16.0 12.7 173.6 158.1 0.00 0.7570000 44.3
2021-02-23 11:55:00 72.1 11.6 15.9 72.1 72.1 14.9 17.1 13.4 189.1 161.3 0.00 0.7590000 44.4
2021-02-23 12:00:00 71.7 12.2 16.6 71.7 71.7 12.4 18.0 13.8 173.2 177.9 0.00 0.7600000 44.6
2021-02-23 12:05:00 70.1 10.8 12.7 70.1 70.1 16.0 18.0 15.2 163.6 166.7 0.00 0.7610000 44.8
2021-02-23 12:10:00 71.3 10.3 12.5 71.3 71.3 15.6 16.9 14.4 156.2 160.5 0.00 0.7610000 44.9
2021-02-23 12:15:00 74.3 8.8 11.3 74.3 74.3 18.3 20.5 15.6 173.1 173.8 0.00 0.7620000 45.1
2021-02-23 12:20:00 75.2 9.1 12.6 75.2 75.2 10.8 22.1 16.6 192.4 181.5 0.00 0.7640000 45.2
2021-02-23 12:25:00 76.6 4.4 -2.2 76.6 76.6 14.9 18.7 14.5 196.8 194.7 0.00 0.7660000 45.4
2021-02-23 12:30:00 74.3 5.4 0.8 74.3 74.3 13.9 20.1 15.7 214.2 205.9 0.00 0.7660000 45.6
2021-02-23 12:35:00 76.0 6.8 6.7 76.0 76.0 20.3 21.0 17.2 224.6 212.3 0.00 0.7640000 45.7
2021-02-23 12:40:00 76.0 6.7 6.3 76.0 76.0 16.9 25.6 19.3 209.7 209.5 0.00 0.7610000 45.9
2021-02-23 12:45:00 73.8 6.5 4.2 73.8 73.8 20.8 23.5 19.1 191.0 209.5 0.00 0.7600000 46.0
2021-02-23 12:50:00 74.0 6.1 2.8 74.0 74.0 21.7 25.5 21.4 211.7 210.5 0.00 0.7600000 46.2
2021-02-23 12:55:00 76.0 5.6 2.8 76.0 76.0 19.0 24.9 19.7 222.2 206.8 0.00 0.7590000 46.4
2021-02-23 13:00:00 75.2 4.0 -5.0 75.2 75.2 21.9 27.4 22.4 208.0 212.7 0.00 0.7500000 46.5
2021-02-23 13:05:00 76.7 6.0 4.4 76.7 76.7 17.4 28.1 22.5 224.0 218.7 0.00 0.7480000 46.7
2021-02-23 13:10:00 76.7 3.7 -5.4 76.7 76.7 23.7 30.8 22.9 225.8 226.9 0.00 0.7340000 46.9
2021-02-23 13:15:00 76.7 6.2 5.1 76.7 76.7 24.0 32.3 24.6 234.7 235.0 0.00 0.7310000 47.0
2021-02-23 13:20:00 76.3 7.4 8.7 76.3 76.3 25.8 30.5 25.2 238.0 231.7 0.00 0.7230000 47.2
2021-02-23 13:25:00 76.7 5.5 2.6 76.7 76.7 29.6 31.2 24.2 230.8 232.8 0.00 0.7170000 47.3
2021-02-23 13:30:00 76.4 3.9 -4.7 76.4 76.4 26.9 32.6 26.4 232.4 232.7 0.00 0.7090000 47.5
2021-02-23 13:35:00 77.0 5.4 2.7 77.0 77.0 23.2 28.3 23.5 217.7 229.5 0.00 0.7020000 47.6
2021-02-23 13:40:00 74.8 4.8 -1.6 74.8 74.8 28.1 32.6 24.9 222.4 229.8 0.00 0.6950000 47.8
2021-02-23 13:45:00 76.0 7.4 8.6 76.0 76.0 29.0 29.4 25.8 229.2 234.0 0.00 0.6870000 47.9
2021-02-23 13:50:00 76.5 5.1 0.9 76.5 76.5 26.7 28.5 24.4 251.3 230.1 0.00 0.6750000 48.1
2021-02-23 13:55:00 76.2 6.7 6.6 76.2 76.2 25.8 29.9 23.7 224.0 225.2 0.00 0.6700000 48.2
2021-02-23 14:00:00 75.8 5.9 3.6 75.8 75.8 22.6 31.2 26.6 233.6 232.2 0.00 0.6600000 48.3
2021-02-23 14:05:00 76.1 4.8 -0.5 76.1 76.1 25.8 29.0 23.5 220.0 223.5 0.00 0.6510000 48.5
2021-02-23 14:10:00 76.3 6.6 6.4 76.3 76.3 25.1 30.5 23.6 216.6 230.5 0.00 0.6390000 48.6
2021-02-23 14:15:00 76.7 7.2 8.7 76.7 76.7 30.1 30.1 24.4 221.5 225.9 0.00 0.6280000 48.7
2021-02-23 14:20:00 76.6 5.1 1.1 76.6 76.6 19.9 27.4 20.6 215.5 216.1 0.00 0.6190000 48.8
2021-02-23 14:25:00 76.5 6.3 5.4 76.5 76.5 24.8 24.9 21.7 210.7 221.5 0.00 0.6070000 49.0
2021-02-23 14:30:00 76.4 8.4 11.8 76.4 76.4 13.1 25.8 20.1 218.0 226.8 0.00 0.5960000 49.1
2021-02-23 14:35:00 75.5 6.5 5.4 75.5 75.5 18.1 26.9 21.4 215.3 219.2 0.00 0.5850000 49.2
2021-02-23 14:40:00 76.1 6.9 7.3 76.1 76.1 22.3 29.2 20.9 229.3 223.0 0.00 0.5740000 49.3
2021-02-23 14:45:00 76.9 7.5 9.7 76.9 76.9 18.9 23.2 19.1 244.0 222.3 0.00 0.5610000 49.4
2021-02-23 14:50:00 76.0 5.6 2.5 76.0 76.0 17.8 25.3 19.2 207.6 226.3 0.00 0.5470000 49.4
2021-02-23 14:55:00 76.4 6.4 5.8 76.4 76.4 18.1 24.4 20.3 219.7 215.7 0.00 0.5340000 49.6
2021-02-23 15:00:00 76.7 6.7 6.9 76.7 76.7 20.5 25.5 21.0 234.1 227.8 0.00 0.5220000 49.6
2021-02-23 15:05:00 76.4 6.6 6.5 76.4 76.4 22.3 26.2 20.4 224.2 227.3 0.00 0.5070000 49.7
2021-02-23 15:10:00 76.2 6.5 6.1 76.2 76.2 22.3 26.9 20.5 207.8 221.5 0.00 0.4930000 49.8
2021-02-23 15:15:00 77.2 7.9 10.9 77.2 77.2 20.1 24.0 18.5 234.3 216.8 0.00 0.4780000 49.9
2021-02-23 15:20:00 76.3 6.7 6.7 76.3 76.3 23.3 23.9 19.7 230.6 221.8 0.00 0.4650000 49.9
2021-02-23 15:25:00 76.1 6.3 5.1 76.1 76.1 15.1 22.1 19.3 222.2 219.2 0.00 0.4500000 50.0
2021-02-23 15:30:00 76.3 5.4 2.2 76.3 76.3 19.6 25.1 19.4 216.4 219.5 0.00 0.4360000 50.1
2021-02-23 15:35:00 75.8 6.9 7.1 75.8 75.8 18.9 23.2 19.3 245.3 227.2 0.00 0.4200000 50.2
2021-02-23 15:40:00 75.7 5.4 1.6 75.7 75.7 20.5 24.0 18.7 227.1 226.1 0.00 0.4040000 50.2
2021-02-23 15:45:00 75.0 7.0 6.8 75.0 75.0 16.9 26.9 21.2 227.8 229.4 0.00 0.3890000 50.3
2021-02-23 15:50:00 76.3 5.4 2.0 76.3 76.3 18.3 24.2 18.1 235.5 233.5 0.00 0.3730000 50.4
2021-02-23 15:55:00 75.8 6.7 6.2 75.8 75.8 18.3 26.2 19.8 229.1 235.1 0.00 0.3560000 50.4
2021-02-23 16:00:00 75.5 6.4 5.2 75.5 75.5 18.9 24.8 19.9 240.2 228.4 0.00 0.3400000 50.5
2021-02-23 16:05:00 74.9 6.3 4.4 74.9 74.9 16.4 25.3 20.9 228.1 233.8 0.00 0.3240000 50.5
2021-02-23 16:10:00 74.9 7.1 7.1 74.9 74.9 18.9 28.1 21.6 231.7 229.9 0.00 0.3070000 50.6
2021-02-23 16:15:00 74.8 7.2 7.2 74.8 74.8 25.1 25.6 20.4 228.2 233.4 0.00 0.2900000 50.6
2021-02-23 16:20:00 74.4 6.1 3.3 74.4 74.4 18.3 26.9 22.0 245.5 229.7 0.00 0.2740000 50.6
2021-02-23 16:25:00 74.5 6.1 3.2 74.5 74.5 18.5 24.0 19.0 223.3 228.0 0.00 0.2570000 50.7
2021-02-23 16:30:00 74.4 6.9 6.1 74.4 74.4 21.5 24.6 20.4 213.6 225.8 0.00 0.2390000 50.7
2021-02-23 16:35:00 74.2 6.9 6.0 74.2 74.2 20.5 24.9 20.6 219.4 227.6 0.00 0.2220000 50.8
2021-02-23 16:40:00 74.3 6.6 4.8 74.3 74.3 21.0 23.9 19.1 220.9 220.5 0.00 0.2060000 50.8
2021-02-23 16:45:00 74.1 7.0 6.2 74.1 74.1 14.4 21.5 16.3 211.9 220.7 0.00 0.1890000 50.8
2021-02-23 16:50:00 73.8 7.8 8.3 73.8 73.8 16.9 21.2 16.9 210.6 214.5 0.00 0.1730000 50.8
2021-02-23 16:55:00 73.7 7.8 8.2 73.7 73.7 13.0 21.4 17.4 213.4 213.4 0.00 0.1570000 50.9
2021-02-23 17:00:00 73.5 7.6 7.5 73.5 73.5 13.5 18.0 14.4 212.8 211.6 0.00 0.1420000 50.9
2021-02-23 17:05:00 73.5 6.9 5.4 73.5 73.5 12.6 18.3 13.9 213.6 218.4 0.00 0.1270000 50.9
2021-02-23 17:10:00 73.1 6.7 4.5 73.1 73.1 11.0 16.9 13.8 233.9 222.8 0.00 0.1100000 51.0
2021-02-23 17:15:00 72.6 6.4 2.9 72.6 72.6 14.0 17.2 13.9 223.7 222.3 0.00 0.0900000 51.0
2021-02-23 17:20:00 72.0 6.2 1.8 72.0 72.0 11.3 13.9 11.5 222.3 224.7 0.00 0.0700000 51.0
2021-02-23 17:25:00 71.7 6.7 3.2 71.7 71.7 10.3 14.6 11.6 236.2 224.8 0.00 0.0520000 51.0
2021-02-23 17:30:00 71.0 7.2 4.4 71.0 71.0 8.7 13.7 11.0 240.3 223.1 0.00 0.0370000 51.0
2021-02-23 17:35:00 70.3 7.0 3.3 70.3 70.3 10.6 13.1 10.8 219.0 221.8 0.00 0.0250000 51.0
2021-02-23 17:40:00 69.2 7.5 3.9 69.2 69.2 11.3 12.2 9.8 228.8 223.7 0.00 0.0150000 51.0
2021-02-23 17:45:00 68.6 7.7 4.1 68.6 68.6 10.3 12.6 10.7 218.4 227.6 0.00 0.0080000 51.0
2021-02-23 17:50:00 68.2 7.9 4.2 68.2 68.2 9.6 12.4 10.6 230.3 226.9 0.00 0.0050000 51.0
2021-02-23 17:55:00 67.2 8.1 4.0 67.2 67.2 9.6 11.0 9.5 223.1 227.4 0.00 0.0030000 51.0
2021-02-23 18:00:00 66.7 8.5 4.9 66.7 66.7 9.2 10.6 9.1 232.5 223.0 0.00 0.0010000 51.0
2021-02-23 18:05:00 65.5 9.0 5.2 65.5 65.5 9.2 10.8 8.9 223.7 226.0 0.00 0.0010000 51.0
2021-02-23 18:10:00 64.9 9.5 5.8 64.9 64.9 9.6 11.9 8.6 219.8 219.2 0.00 0.0000000 51.0
2021-02-23 18:15:00 64.3 9.8 6.0 64.3 64.3 9.4 10.3 8.8 234.3 219.0 0.00 0.0000000 51.0
2021-02-23 18:20:00 63.8 10.3 6.6 63.8 63.8 9.2 10.5 8.8 229.0 221.8 0.00 0.0000000 51.0
2021-02-23 18:25:00 63.7 10.7 7.5 63.7 63.7 10.3 11.9 8.9 216.6 222.6 0.00 0.0000000 51.0
2021-02-23 18:30:00 63.4 10.8 7.6 63.4 63.4 8.1 12.6 9.5 237.4 227.1 0.00 0.0000000 51.0
2021-02-23 18:35:00 63.4 10.6 7.2 63.4 63.4 8.8 10.1 8.9 227.0 231.3 0.00 0.0000000 51.0
2021-02-23 18:40:00 62.9 11.3 8.1 62.9 62.9 6.2 10.5 8.3 244.0 231.6 0.00 0.0000000 51.0
2021-02-23 18:45:00 62.5 11.4 8.1 62.5 62.5 8.5 9.2 7.7 221.0 233.2 0.00 0.0000000 51.0
2021-02-23 18:50:00 61.8 11.6 7.9 61.8 61.8 7.4 9.7 7.6 240.2 234.2 0.00 0.0000000 50.9
2021-02-23 18:55:00 61.6 11.7 7.9 61.6 61.6 8.0 8.7 7.4 232.2 233.0 0.00 0.0000000 50.9
2021-02-23 19:00:00 60.8 12.6 8.9 60.8 60.8 6.2 7.8 6.7 242.3 238.8 0.00 0.0000000 50.9
2021-02-23 19:05:00 59.9 13.0 8.8 59.9 59.9 6.0 7.2 5.9 257.8 246.9 0.00 0.0000000 50.8
2021-02-23 19:10:00 58.8 14.2 10.0 58.8 58.8 4.6 6.0 5.0 257.4 262.8 0.00 0.0000000 50.8
2021-02-23 19:15:00 57.9 14.8 10.2 57.9 57.9 4.7 6.9 4.7 269.3 268.9 0.00 0.0000000 50.8
2021-02-23 19:20:00 58.5 14.4 10.0 58.5 58.5 3.8 5.8 4.5 261.6 263.7 0.00 0.0000000 50.8
2021-02-23 19:25:00 58.4 14.6 10.2 58.4 58.4 3.7 5.1 4.1 261.1 268.2 0.00 0.0000000 50.7
2021-02-23 19:30:00 58.4 14.7 10.4 58.4 58.4 3.5 5.1 3.9 267.3 264.7 0.00 0.0000000 50.7
2021-02-23 19:35:00 58.1 15.1 10.7 58.1 58.1 3.8 3.8 3.2 272.1 272.8 0.00 0.0000000 50.7
2021-02-23 19:40:00 57.8 15.3 10.9 57.8 57.8 3.7 4.0 3.3 244.7 250.5 0.00 0.0000000 50.6
2021-02-23 19:45:00 57.5 15.3 10.5 57.5 57.5 3.8 4.2 3.3 244.9 243.1 0.00 0.0000000 50.6
2021-02-23 19:50:00 57.1 15.4 10.4 57.1 57.1 3.1 4.6 3.5 264.6 248.8 0.00 0.0000000 50.5
2021-02-23 19:55:00 56.5 15.9 10.6 56.5 56.5 5.1 5.5 4.3 251.1 251.7 0.00 0.0000000 50.5
2021-02-23 20:00:00 56.0 16.1 10.5 56.0 56.0 5.1 6.0 5.2 226.8 243.0 0.00 0.0000000 50.5
2021-02-23 20:05:00 56.9 15.0 9.6 56.9 56.9 4.4 6.3 5.0 254.5 245.3 0.00 0.0000000 50.4
2021-02-23 20:10:00 56.7 16.0 10.9 56.7 56.7 4.2 4.9 4.2 284.5 277.5 0.00 0.0000000 50.4
2021-02-23 20:15:00 55.6 17.3 11.8 55.6 55.6 4.2 4.7 3.9 271.4 280.4 0.00 0.0000000 50.3
2021-02-23 20:20:00 55.7 16.3 10.6 55.7 55.7 4.2 5.5 4.0 251.4 259.2 0.00 0.0000000 50.3
2021-02-23 20:25:00 55.3 17.1 11.3 55.3 55.3 4.0 4.7 3.8 252.1 261.1 0.00 0.0000000 50.2
2021-02-23 20:30:00 54.9 17.6 11.7 54.9 54.9 5.1 5.5 4.7 269.0 261.8 0.00 0.0000000 50.2
2021-02-23 20:35:00 54.0 17.7 11.0 54.0 54.0 3.8 4.9 4.3 299.7 277.7 0.00 0.0000000 50.1
2021-02-23 20:40:00 54.1 16.8 10.0 54.1 54.1 3.1 3.8 3.2 309.6 302.8 0.00 0.0000000 50.1
2021-02-23 20:45:00 54.7 16.0 9.3 54.7 54.7 2.6 3.1 2.6 265.7 296.3 0.00 0.0000000 50.0
2021-02-23 20:50:00 54.1 17.1 10.3 54.1 54.1 3.5 3.8 3.1 239.4 250.3 0.00 0.0000000 50.0
2021-02-23 20:55:00 52.4 18.1 10.2 52.4 52.4 4.6 4.6 3.9 245.5 248.1 0.00 0.0000000 49.9
2021-02-23 21:00:00 53.4 17.0 9.7 53.4 53.4 5.8 6.3 5.5 273.0 258.9 0.00 0.0000000 49.9
2021-02-23 21:05:00 55.3 15.0 8.3 55.3 55.3 6.0 8.3 5.7 264.0 258.4 0.00 0.0000000 49.8
2021-02-23 21:10:00 56.1 14.8 8.6 56.1 56.1 10.5 11.7 8.7 248.9 247.6 0.00 0.0000000 49.7
2021-02-23 21:15:00 57.5 13.5 7.8 57.5 57.5 10.5 12.8 11.0 250.2 248.6 0.00 0.0000000 49.7
2021-02-23 21:20:00 57.5 13.6 8.0 57.5 57.5 8.8 12.1 9.5 250.6 248.2 0.00 0.0000000 49.6
2021-02-23 21:25:00 56.1 14.7 8.6 56.1 56.1 6.9 8.5 7.5 253.7 253.7 0.00 0.0000000 49.6
2021-02-23 21:30:00 55.0 15.6 9.1 55.0 55.0 6.0 6.9 6.3 259.6 260.3 0.00 0.0000000 49.5
2021-02-23 21:35:00 53.4 17.7 10.5 53.4 53.4 5.6 6.3 5.9 266.9 263.7 0.00 0.0000000 49.5
2021-02-23 21:40:00 52.0 19.2 11.1 52.0 52.0 6.5 6.5 5.4 246.1 261.1 0.00 0.0000000 49.4
2021-02-23 21:45:00 51.0 19.9 11.3 51.0 51.0 5.3 6.5 5.6 255.1 255.2 0.00 0.0000000 49.4
2021-02-23 21:50:00 51.0 18.7 9.8 51.0 51.0 6.5 6.9 5.9 252.5 259.4 0.00 0.0000000 49.3
2021-02-23 21:55:00 51.9 17.8 9.4 51.9 51.9 7.4 7.8 7.1 257.9 253.8 0.00 0.0000000 49.3
2021-02-23 22:00:00 55.7 14.2 7.5 55.7 55.7 9.2 10.8 9.0 250.6 247.7 0.00 0.0000000 49.2
2021-02-23 22:05:00 56.3 13.9 7.6 56.3 56.3 9.0 12.4 10.1 246.5 246.3 0.00 0.0000000 49.2
2021-02-23 22:10:00 55.7 14.3 7.6 55.7 55.7 9.4 11.9 9.8 254.6 249.1 0.00 0.0000000 49.1
2021-02-23 22:15:00 55.8 14.5 8.0 55.8 55.8 9.2 11.5 9.5 248.8 254.6 0.00 0.0000000 49.0
2021-02-23 22:20:00 56.0 13.7 7.0 56.0 56.0 10.6 11.9 9.8 254.5 257.3 0.00 0.0000000 49.0
2021-02-23 22:25:00 56.0 13.9 7.3 56.0 56.0 12.8 13.3 11.9 258.0 256.2 0.00 0.0000000 49.0
2021-02-23 22:30:00 56.4 13.3 6.6 56.4 56.4 13.1 15.6 13.5 248.1 249.6 0.00 0.0000000 48.9
2021-02-23 22:35:00 56.1 13.2 6.2 56.1 56.1 13.7 14.0 12.8 255.3 251.0 0.00 0.0000000 48.9
2021-02-23 22:40:00 56.3 13.1 6.2 56.3 56.3 12.6 14.7 13.1 254.6 255.4 0.00 0.0000000 48.8
2021-02-23 22:45:00 56.1 13.5 6.7 56.1 56.1 12.4 14.0 12.4 256.7 253.0 0.00 0.0000000 48.8
2021-02-23 22:50:00 55.8 13.2 6.0 55.8 55.8 12.1 14.0 12.2 252.0 254.2 0.00 0.0000000 48.7
2021-02-23 22:55:00 55.6 13.7 6.7 55.6 55.6 11.5 14.4 11.8 256.2 255.2 0.00 0.0000000 48.7
2021-02-23 23:00:00 54.5 14.0 6.3 54.5 54.5 11.3 13.3 11.7 260.3 253.7 0.00 0.0000000 48.6
2021-02-23 23:05:00 54.1 14.6 6.7 54.1 54.1 9.4 12.4 10.4 251.9 251.6 0.00 0.0000000 48.6
2021-02-23 23:10:00 53.3 15.3 7.1 53.3 53.3 8.7 11.7 9.9 247.5 253.5 0.00 0.0000000 48.6
2021-02-23 23:15:00 52.3 15.6 6.9 52.3 52.3 8.5 9.7 8.6 254.3 255.7 0.00 0.0000000 48.5
2021-02-23 23:20:00 52.4 15.9 7.3 52.4 52.4 6.7 9.2 8.0 265.2 261.7 0.00 0.0000000 48.5
2021-02-23 23:25:00 51.7 16.1 7.0 51.7 51.7 7.4 7.8 7.1 273.5 260.1 0.00 0.0000000 48.4
2021-02-23 23:30:00 51.2 16.4 7.0 51.2 51.2 8.3 9.9 8.1 262.3 262.5 0.00 0.0000000 48.4
2021-02-23 23:35:00 49.8 18.3 8.3 47.8 49.8 5.3 9.6 7.1 258.5 256.8 0.00 0.0000000 48.4
2021-02-23 23:40:00 47.8 20.2 8.8 45.6 47.8 4.9 5.8 5.4 246.8 248.9 0.00 0.0000000 48.3
2021-02-23 23:45:00 46.4 21.8 9.3 46.4 46.4 2.2 5.3 4.1 232.1 245.9 0.00 0.0000000 48.3
2021-02-23 23:50:00 46.5 20.0 7.6 44.5 46.5 4.4 6.0 3.5 2.9 52.4 0.00 0.0000000 48.3
2021-02-23 23:55:00 48.3 18.4 7.2 46.8 48.3 4.2 4.2 3.3 279.9 345.3 0.00 0.0000000 48.2
2021-02-24 00:00:00 48.8 17.5 6.5 47.7 48.8 3.7 5.1 3.6 205.8 241.0 0.00 0.0000000 48.2

Data is courtesy of the NM Climate Center. DO NOT USE IN LEGAL PROCEEDINGS.